createdAt,value
2018-08-22T00:02:14.427Z,100032.00
2018-08-22T00:04:43.658Z,100034.00
2018-08-22T00:07:12.707Z,100031.00
2018-08-22T00:09:41.792Z,100026.00
2018-08-22T00:12:11.869Z,100028.00
2018-08-22T00:14:41.623Z,100020.00
2018-08-22T00:17:10.690Z,100022.00
2018-08-22T00:19:39.736Z,100023.00
2018-08-22T00:22:08.816Z,100022.00
2018-08-22T00:24:37.831Z,100022.00
2018-08-22T00:27:06.860Z,100030.00
2018-08-22T00:29:35.914Z,100029.00
2018-08-22T00:32:05.245Z,100025.00
2018-08-22T00:34:34.403Z,100026.00
2018-08-22T00:37:03.448Z,100025.00
2018-08-22T00:39:33.149Z,100021.00
2018-08-22T00:42:03.292Z,100020.00
2018-08-22T00:44:33.516Z,100016.00
2018-08-22T00:47:02.520Z,100014.00
2018-08-22T00:49:31.749Z,100011.00
2018-08-22T00:52:00.761Z,100018.00
2018-08-22T00:54:29.811Z,100016.00
2018-08-22T00:56:58.827Z,100013.00
2018-08-22T00:59:27.845Z,100005.00
2018-08-22T01:01:56.857Z,100006.00
2018-08-22T01:04:25.955Z,100005.00
2018-08-22T01:06:54.993Z,100007.00
2018-08-22T01:09:23.971Z,100003.00
2018-08-22T01:11:53.087Z,100001.00
2018-08-22T01:14:22.368Z,99997.00
2018-08-22T01:16:51.407Z,99988.00
2018-08-22T01:19:20.439Z,99993.00
2018-08-22T01:21:49.520Z,99990.00
2018-08-22T01:24:18.581Z,99989.00
2018-08-22T01:26:47.664Z,99988.00
2018-08-22T01:29:16.667Z,99984.00
2018-08-22T01:31:46.068Z,99985.00
2018-08-22T01:34:15.354Z,99989.00
2018-08-22T01:36:44.472Z,99985.00
2018-08-22T01:39:13.563Z,99980.00
2018-08-22T01:41:42.713Z,99980.00
2018-08-22T01:44:11.958Z,99977.00
2018-08-22T01:46:41.299Z,99979.00
2018-08-22T01:49:10.499Z,99976.00
2018-08-22T01:51:39.483Z,99979.00
2018-08-22T01:54:08.588Z,99982.00
2018-08-22T01:56:37.640Z,99979.00
2018-08-22T01:59:06.821Z,99982.00
2018-08-22T02:01:35.896Z,99975.00
2018-08-22T02:04:04.968Z,99977.00
2018-08-22T02:06:34.165Z,99968.00
2018-08-22T02:09:03.269Z,99969.00
2018-08-22T02:11:33.328Z,99966.00
2018-08-22T02:14:02.396Z,99968.00
2018-08-22T02:16:31.581Z,99968.00
2018-08-22T02:19:00.638Z,99970.00
2018-08-22T02:21:29.654Z,99969.00
2018-08-22T02:23:58.839Z,99974.00
2018-08-22T02:26:27.875Z,99966.00
2018-08-22T02:28:56.950Z,99965.00
2018-08-22T02:31:26.118Z,99957.00
2018-08-22T02:33:55.248Z,99959.00
2018-08-22T02:36:24.384Z,99961.00
2018-08-22T02:38:53.482Z,99958.00
2018-08-22T02:41:29.395Z,99961.00
2018-08-22T02:43:58.539Z,99963.00
2018-08-22T02:46:28.033Z,99964.00
2018-08-22T02:48:57.834Z,99966.00
2018-08-22T02:51:27.149Z,99967.00
2018-08-22T02:53:56.535Z,99957.00
2018-08-22T02:56:25.749Z,99964.00
2018-08-22T02:58:54.845Z,99964.00
2018-08-22T03:01:23.990Z,99964.00
2018-08-22T03:03:53.084Z,99962.00
2018-08-22T03:06:22.171Z,99966.00
2018-08-22T03:08:51.284Z,99963.00
2018-08-22T03:11:20.311Z,99963.00
2018-08-22T03:13:49.371Z,99964.00
2018-08-22T03:16:18.536Z,99959.00
2018-08-22T03:18:47.706Z,99962.00
2018-08-22T03:21:16.967Z,99965.00
2018-08-22T03:23:46.145Z,99958.00
2018-08-22T03:26:15.390Z,99957.00
2018-08-22T03:28:45.560Z,99958.00
2018-08-22T03:31:14.690Z,99953.00
2018-08-22T03:33:43.768Z,99955.00
2018-08-22T03:36:12.921Z,99950.00
2018-08-22T03:38:42.080Z,99953.00
2018-08-22T03:41:11.233Z,99953.00
2018-08-22T03:43:40.548Z,99953.00
2018-08-22T03:46:09.643Z,99956.00
2018-08-22T03:48:38.873Z,99957.00
2018-08-22T03:51:08.069Z,99955.00
2018-08-22T03:53:37.606Z,99951.00
2018-08-22T03:56:07.868Z,99946.00
2018-08-22T03:58:37.005Z,99952.00
2018-08-22T04:01:06.182Z,99952.00
2018-08-22T04:03:35.290Z,99952.00
2018-08-22T04:06:04.377Z,99954.00
2018-08-22T04:08:33.483Z,99954.00
2018-08-22T04:11:02.726Z,99954.00
2018-08-22T04:13:31.868Z,99961.00
2018-08-22T04:16:01.218Z,99959.00
2018-08-22T04:18:31.445Z,99956.00
2018-08-22T04:21:00.661Z,99956.00
2018-08-22T04:23:29.799Z,99956.00
2018-08-22T04:25:58.886Z,99952.00
2018-08-22T04:28:27.985Z,99958.00
2018-08-22T04:30:57.174Z,99956.00
2018-08-22T04:33:26.233Z,99955.00
2018-08-22T04:35:55.590Z,99956.00
2018-08-22T04:38:25.687Z,99958.00
2018-08-22T04:40:54.898Z,99959.00
2018-08-22T04:43:24.036Z,99961.00
2018-08-22T04:45:53.258Z,99964.00
2018-08-22T04:48:22.425Z,99957.00
2018-08-22T04:50:51.528Z,99961.00
2018-08-22T04:53:20.649Z,99964.00
2018-08-22T04:55:50.530Z,99961.00
2018-08-22T04:58:19.666Z,99963.00
2018-08-22T05:00:49.809Z,99962.00
2018-08-22T05:03:18.943Z,99963.00
2018-08-22T05:05:48.184Z,99965.00
2018-08-22T05:08:17.392Z,99960.00
2018-08-22T05:10:46.512Z,99956.00
2018-08-22T05:13:16.085Z,99955.00
2018-08-22T05:15:46.020Z,99956.00
2018-08-22T05:18:15.436Z,99955.00
2018-08-22T05:20:44.627Z,99955.00
2018-08-22T05:23:13.860Z,99951.00
2018-08-22T05:25:43.135Z,99959.00
2018-08-22T05:28:12.832Z,99957.00
2018-08-22T05:30:42.120Z,99959.00
2018-08-22T05:33:11.573Z,99957.00
2018-08-22T05:35:41.185Z,99961.00
2018-08-22T05:38:11.045Z,99958.00
2018-08-22T05:40:40.484Z,99962.00
2018-08-22T05:43:09.602Z,99966.00
2018-08-22T05:45:38.875Z,99964.00
2018-08-22T05:48:07.990Z,99957.00
2018-08-22T05:50:37.899Z,99958.00
2018-08-22T05:53:07.096Z,99959.00
2018-08-22T05:55:36.349Z,99954.00
2018-08-22T05:58:05.901Z,99950.00
2018-08-22T06:00:35.212Z,99958.00
2018-08-22T06:03:04.268Z,99958.00
2018-08-22T06:05:33.340Z,99954.00
2018-08-22T06:08:02.465Z,99953.00
2018-08-22T06:10:31.599Z,99952.00
2018-08-22T06:13:00.828Z,99950.00
2018-08-22T06:15:29.892Z,99953.00
2018-08-22T06:17:59.150Z,99949.00
2018-08-22T06:20:28.668Z,99952.00
2018-08-22T06:22:57.840Z,99953.00
2018-08-22T06:25:27.036Z,99949.00
2018-08-22T06:27:56.115Z,99956.00
2018-08-22T06:30:25.267Z,99949.00
2018-08-22T06:32:54.634Z,99946.00
2018-08-22T06:35:23.784Z,99955.00
2018-08-22T06:37:52.905Z,99950.00
2018-08-22T06:40:23.462Z,99952.00
2018-08-22T06:42:52.961Z,99955.00
2018-08-22T06:45:22.090Z,99960.00
2018-08-22T06:47:51.411Z,99962.00
2018-08-22T06:50:21.309Z,99952.00
2018-08-22T06:52:50.310Z,99954.00
2018-08-22T06:55:19.534Z,99957.00
2018-08-22T06:57:48.803Z,99957.00
2018-08-22T07:00:17.932Z,99957.00
2018-08-22T07:02:47.267Z,99963.00
2018-08-22T07:05:16.502Z,99964.00
2018-08-22T07:07:45.711Z,99967.00
2018-08-22T07:10:15.130Z,99960.00
2018-08-22T07:12:44.448Z,99961.00
2018-08-22T07:15:13.802Z,99957.00
2018-08-22T07:17:44.419Z,99954.00
2018-08-22T07:20:14.037Z,99958.00
2018-08-22T07:22:43.708Z,99959.00
2018-08-22T07:25:13.242Z,99958.00
2018-08-22T07:27:42.392Z,99961.00
2018-08-22T07:30:11.774Z,99965.00
2018-08-22T07:32:41.052Z,99965.00
2018-08-22T07:35:11.806Z,99962.00
2018-08-22T07:37:41.851Z,99960.00
2018-08-22T07:40:11.629Z,99960.00
2018-08-22T07:42:41.050Z,99965.00
2018-08-22T07:45:10.254Z,99965.00
2018-08-22T07:47:39.520Z,99966.00
2018-08-22T07:50:10.379Z,99962.00
2018-08-22T07:52:52.547Z,99965.00
2018-08-22T07:55:23.185Z,99964.00
2018-08-22T07:57:52.524Z,99965.00
2018-08-22T08:00:21.685Z,99965.00
2018-08-22T08:02:51.085Z,99960.00
2018-08-22T08:05:20.257Z,99960.00
2018-08-22T08:07:49.742Z,99958.00
2018-08-22T08:10:24.457Z,99967.00
2018-08-22T08:12:54.231Z,99963.00
2018-08-22T08:15:23.801Z,99965.00
2018-08-22T08:17:53.525Z,99962.00
2018-08-22T08:20:23.467Z,99962.00
2018-08-22T08:22:52.747Z,99969.00
2018-08-22T08:25:22.099Z,99966.00
2018-08-22T08:27:51.416Z,99962.00
2018-08-22T08:30:20.714Z,99967.00
2018-08-22T08:32:49.920Z,99970.00
2018-08-22T08:35:19.281Z,99969.00
2018-08-22T08:37:48.696Z,99968.00
2018-08-22T08:40:18.787Z,99971.00
2018-08-22T08:42:48.063Z,99967.00
2018-08-22T08:45:17.261Z,99964.00
2018-08-22T08:47:46.584Z,99962.00
2018-08-22T08:50:16.110Z,99965.00
2018-08-22T08:52:45.549Z,99967.00
2018-08-22T08:55:14.956Z,99958.00
2018-08-22T08:57:44.732Z,99960.00
2018-08-22T09:00:14.295Z,99960.00
2018-08-22T09:02:45.055Z,99958.00
2018-08-22T09:05:14.506Z,99956.00
2018-08-22T09:07:44.053Z,99955.00
2018-08-22T09:10:13.530Z,99952.00
2018-08-22T09:12:42.714Z,99947.00
2018-08-22T09:15:12.006Z,99955.00
2018-08-22T09:17:41.467Z,99952.00
2018-08-22T09:20:11.257Z,99948.00
2018-08-22T09:22:40.486Z,99946.00
2018-08-22T09:25:09.860Z,99946.00
2018-08-22T09:27:39.696Z,99948.00
2018-08-22T09:30:08.993Z,99944.00
2018-08-22T09:32:38.177Z,99952.00
2018-08-22T09:35:07.489Z,99948.00
2018-08-22T09:37:36.658Z,99941.00
2018-08-22T09:40:06.156Z,99938.00
2018-08-22T09:42:35.599Z,99943.00
2018-08-22T09:45:05.140Z,99940.00
2018-08-22T09:47:34.968Z,99933.00
2018-08-22T09:50:04.315Z,99935.00
2018-08-22T09:52:33.755Z,99933.00
2018-08-22T09:55:04.604Z,99937.00
2018-08-22T09:57:33.790Z,99932.00
2018-08-22T10:00:03.508Z,99935.00
2018-08-22T10:02:32.810Z,99932.00
2018-08-22T10:05:02.161Z,99934.00
2018-08-22T10:07:31.973Z,99934.00
2018-08-22T10:10:01.393Z,99932.00
2018-08-22T10:12:30.424Z,99933.00
2018-08-22T10:14:59.722Z,99932.00
2018-08-22T10:17:29.052Z,99927.00
2018-08-22T10:19:58.388Z,99920.00
2018-08-22T10:22:27.586Z,99920.00
2018-08-22T10:24:56.895Z,99920.00
2018-08-22T10:27:26.129Z,99920.00
2018-08-22T10:29:55.397Z,99922.00
2018-08-22T10:32:24.500Z,99915.00
2018-08-22T10:34:53.721Z,99912.00
2018-08-22T10:37:22.845Z,99907.00
2018-08-22T10:39:52.279Z,99909.00
2018-08-22T10:42:21.925Z,99903.00
2018-08-22T10:44:51.454Z,99895.00
2018-08-22T10:47:20.905Z,99905.00
2018-08-22T10:49:50.177Z,99898.00
2018-08-22T10:52:19.474Z,99893.00
2018-08-22T10:54:48.750Z,99890.00
2018-08-22T10:57:18.156Z,99890.00
2018-08-22T10:59:47.713Z,99891.00
2018-08-22T11:02:18.008Z,99888.00
2018-08-22T11:04:47.651Z,99884.00
2018-08-22T11:07:17.802Z,99883.00
2018-08-22T11:09:47.457Z,99882.00
2018-08-22T11:12:18.257Z,99885.00
2018-08-22T11:14:47.584Z,99895.00
2018-08-22T11:17:16.914Z,99893.00
2018-08-22T11:19:46.117Z,99889.00
2018-08-22T11:22:32.624Z,99894.00
2018-08-22T11:25:18.897Z,99890.00
2018-08-22T11:28:05.217Z,99893.00
2018-08-22T11:30:51.490Z,99887.00
2018-08-22T11:33:37.757Z,99891.00
2018-08-22T11:36:05.493Z,99888.00
2018-08-22T11:38:34.722Z,99895.00
2018-08-22T11:41:04.300Z,99892.00
2018-08-22T11:43:33.986Z,99895.00
2018-08-22T11:46:03.631Z,99882.00
2018-08-22T11:48:32.937Z,99891.00
2018-08-22T11:51:02.441Z,99883.00
2018-08-22T11:53:32.476Z,99882.00
2018-08-22T11:56:01.902Z,99879.00
2018-08-22T11:58:31.160Z,99885.00
2018-08-22T12:01:00.996Z,99884.00
2018-08-22T12:03:30.243Z,99878.00
2018-08-22T12:05:59.780Z,99875.00
2018-08-22T12:08:29.718Z,99873.00
2018-08-22T12:10:59.161Z,99873.00
2018-08-22T12:13:28.615Z,99868.00
2018-08-22T12:15:58.651Z,99872.00
2018-08-22T12:18:27.926Z,99865.00
2018-08-22T12:20:57.181Z,99861.00
2018-08-22T12:23:26.449Z,99857.00
2018-08-22T12:25:55.816Z,99855.00
2018-08-22T12:28:25.439Z,99855.00
2018-08-22T12:30:54.830Z,99859.00
2018-08-22T12:33:24.058Z,99854.00
2018-08-22T12:35:53.384Z,99859.00
2018-08-22T12:38:23.096Z,99857.00
2018-08-22T12:40:52.723Z,99845.00
2018-08-22T12:43:22.116Z,99847.00
2018-08-22T12:45:51.859Z,99851.00
2018-08-22T12:48:21.112Z,99850.00
2018-08-22T12:50:50.320Z,99849.00
2018-08-22T12:53:19.771Z,99853.00
2018-08-22T12:55:49.272Z,99846.00
2018-08-22T12:58:18.432Z,99842.00
2018-08-22T13:00:47.584Z,99844.00
2018-08-22T13:03:17.093Z,99840.00
2018-08-22T13:05:46.322Z,99838.00
2018-08-22T13:08:16.410Z,99841.00
2018-08-22T13:10:45.472Z,99839.00
2018-08-22T13:13:14.869Z,99839.00
2018-08-22T13:15:44.152Z,99834.00
2018-08-22T13:18:13.450Z,99834.00
2018-08-22T13:20:42.745Z,99830.00
2018-08-22T13:23:12.031Z,99827.00
2018-08-22T13:25:41.619Z,99826.00
2018-08-22T13:28:11.419Z,99826.00
2018-08-22T13:30:41.897Z,99816.00
2018-08-22T13:33:11.201Z,99819.00
2018-08-22T13:35:40.411Z,99818.00
2018-08-22T13:38:09.771Z,99819.00
2018-08-22T13:40:41.603Z,99818.00
2018-08-22T13:43:11.035Z,99814.00
2018-08-22T13:45:40.220Z,99808.00
2018-08-22T13:48:09.493Z,99817.00
2018-08-22T13:50:39.023Z,99815.00
2018-08-22T13:53:08.625Z,99810.00
2018-08-22T13:55:37.826Z,99812.00
2018-08-22T13:58:08.452Z,99804.00
2018-08-22T14:00:37.953Z,99802.00
2018-08-22T14:03:07.538Z,99805.00
2018-08-22T14:05:36.793Z,99810.00
2018-08-22T14:08:05.945Z,99807.00
2018-08-22T14:10:35.315Z,99803.00
2018-08-22T14:13:04.628Z,99800.00
2018-08-22T14:15:34.076Z,99806.00
2018-08-22T14:18:03.446Z,99802.00
2018-08-22T14:20:32.489Z,99798.00
2018-08-22T14:23:01.566Z,99796.00
2018-08-22T14:25:30.820Z,99798.00
2018-08-22T14:28:00.676Z,99793.00
2018-08-22T14:30:30.088Z,99793.00
2018-08-22T14:32:59.582Z,99789.00
2018-08-22T14:35:28.820Z,99791.00
2018-08-22T14:37:58.130Z,99792.00
2018-08-22T14:40:27.309Z,99794.00
2018-08-22T14:42:56.429Z,99798.00
2018-08-22T14:45:25.773Z,99791.00
2018-08-22T14:47:54.949Z,99791.00
2018-08-22T14:50:24.152Z,99794.00
2018-08-22T14:52:53.416Z,99786.00
2018-08-22T14:55:22.660Z,99790.00
2018-08-22T14:57:51.964Z,99789.00
2018-08-22T15:00:21.289Z,99786.00
2018-08-22T15:02:50.705Z,99784.00
2018-08-22T15:05:19.589Z,99783.00
2018-08-22T15:07:49.400Z,99783.00
2018-08-22T15:10:19.105Z,99784.00
2018-08-22T15:12:49.342Z,99783.00
2018-08-22T15:15:18.870Z,99778.00
2018-08-22T15:17:48.130Z,99779.00
2018-08-22T15:20:17.369Z,99782.00
2018-08-22T15:22:46.549Z,99780.00
2018-08-22T15:25:15.668Z,99783.00
2018-08-22T15:27:45.270Z,99786.00
2018-08-22T15:30:15.077Z,99780.00
2018-08-22T15:32:44.238Z,99778.00
2018-08-22T15:35:13.515Z,99776.00
2018-08-22T15:37:42.923Z,99773.00
2018-08-22T15:40:13.103Z,99775.00
2018-08-22T15:42:42.388Z,99769.00
2018-08-22T15:45:12.224Z,99768.00
2018-08-22T15:47:41.706Z,99765.00
2018-08-22T15:50:10.885Z,99770.00
2018-08-22T15:52:40.325Z,99761.00
2018-08-22T15:55:13.087Z,99762.00
2018-08-22T15:57:59.488Z,99759.00
2018-08-22T16:00:50.861Z,99756.00
2018-08-22T16:03:20.474Z,99755.00
2018-08-22T16:05:50.337Z,99755.00
2018-08-22T16:08:22.070Z,99753.00
2018-08-22T16:10:51.327Z,99753.00
2018-08-22T16:13:25.785Z,99757.00
2018-08-22T16:15:56.050Z,99751.00
2018-08-22T16:18:25.566Z,99748.00
2018-08-22T16:20:57.950Z,99750.00
2018-08-22T16:23:30.116Z,99748.00
2018-08-22T16:26:00.530Z,99745.00
2018-08-22T16:28:49.860Z,99744.00
2018-08-22T16:31:19.319Z,99745.00
2018-08-22T16:33:48.625Z,99743.00
2018-08-22T16:36:23.175Z,99746.00
2018-08-22T16:38:52.375Z,99739.00
2018-08-22T16:41:21.804Z,99739.00
2018-08-22T16:43:51.033Z,99735.00
2018-08-22T16:46:20.307Z,99733.00
2018-08-22T16:48:53.221Z,99731.00
2018-08-22T16:51:22.971Z,99733.00
2018-08-22T16:53:59.825Z,99726.00
2018-08-22T16:56:30.549Z,99723.00
2018-08-22T16:59:05.008Z,99727.00
2018-08-22T17:01:34.068Z,99725.00
2018-08-22T17:04:03.275Z,99725.00
2018-08-22T17:06:32.583Z,99723.00
2018-08-22T17:09:01.738Z,99726.00
2018-08-22T17:11:30.862Z,99721.00
2018-08-22T17:14:00.590Z,99724.00
2018-08-22T17:16:29.731Z,99721.00
2018-08-22T17:18:58.967Z,99727.00
2018-08-22T17:21:28.123Z,99733.00
2018-08-22T17:23:57.363Z,99728.00
2018-08-22T17:26:26.404Z,99730.00
2018-08-22T17:28:57.154Z,99729.00
2018-08-22T17:31:27.884Z,99731.00
2018-08-22T17:33:58.510Z,99730.00
2018-08-22T17:36:27.665Z,99732.00
2018-08-22T17:38:58.113Z,99737.00
2018-08-22T17:41:29.153Z,99733.00
2018-08-22T17:44:08.009Z,99736.00
2018-08-22T17:46:42.201Z,99731.00
2018-08-22T17:49:11.836Z,99735.00
2018-08-22T17:51:58.205Z,99740.00
2018-08-22T17:54:27.966Z,99736.00
2018-08-22T17:57:13.348Z,99735.00
2018-08-22T17:59:43.803Z,99742.00
2018-08-22T18:02:13.702Z,99738.00
2018-08-22T18:04:56.258Z,99742.00
2018-08-22T18:07:26.429Z,99746.00
2018-08-22T18:09:56.848Z,99749.00
2018-08-22T18:12:28.319Z,99749.00
2018-08-22T18:15:00.232Z,99747.00
2018-08-22T18:17:29.403Z,99753.00
2018-08-22T18:19:58.836Z,99752.00
2018-08-22T18:22:32.349Z,99757.00
2018-08-22T18:25:01.857Z,99763.00
2018-08-22T18:27:31.261Z,99759.00
2018-08-22T18:30:00.499Z,99761.00
2018-08-22T18:32:29.735Z,99762.00
2018-08-22T18:35:10.927Z,99763.00
2018-08-22T18:37:41.678Z,99760.00
2018-08-22T18:40:18.045Z,99761.00
2018-08-22T18:42:49.975Z,99767.00
2018-08-22T18:45:20.153Z,99772.00
2018-08-22T18:47:49.356Z,99775.00
2018-08-22T18:50:19.037Z,99777.00
2018-08-22T18:52:51.273Z,99776.00
2018-08-22T18:55:26.264Z,99782.00
2018-08-22T18:57:56.576Z,99780.00
2018-08-22T19:00:25.996Z,99784.00
2018-08-22T19:02:56.254Z,99792.00
2018-08-22T19:05:30.388Z,99796.00
2018-08-22T19:08:07.291Z,99797.00
2018-08-22T19:10:37.490Z,99802.00
2018-08-22T19:13:11.936Z,99805.00
2018-08-22T19:15:42.431Z,99801.00
2018-08-22T19:18:12.905Z,99806.00
2018-08-22T19:20:42.528Z,99809.00
2018-08-22T19:23:11.908Z,99807.00
2018-08-22T19:25:42.006Z,99802.00
2018-08-22T19:28:11.164Z,99803.00
2018-08-22T19:30:40.657Z,99801.00
2018-08-22T19:33:13.714Z,99805.00
2018-08-22T19:35:43.415Z,99807.00
2018-08-22T19:38:17.215Z,99807.00
2018-08-22T19:40:46.358Z,99806.00
2018-08-22T19:43:15.850Z,99811.00
2018-08-22T19:45:45.369Z,99809.00
2018-08-22T19:48:14.969Z,99804.00
2018-08-22T19:50:44.176Z,99808.00
2018-08-22T19:53:13.442Z,99804.00
2018-08-22T19:55:42.972Z,99807.00
2018-08-22T19:58:14.796Z,99810.00
2018-08-22T20:00:44.237Z,99813.00
2018-08-22T20:03:19.384Z,99813.00
2018-08-22T20:05:54.347Z,99813.00
2018-08-22T20:08:28.397Z,99814.00
2018-08-22T20:10:59.299Z,99812.00
2018-08-22T20:13:46.442Z,99813.00
2018-08-22T20:16:16.724Z,99815.00
2018-08-22T20:18:50.431Z,99816.00
2018-08-22T20:21:25.070Z,99815.00
2018-08-22T20:23:55.219Z,99818.00
2018-08-22T20:26:25.185Z,99819.00
2018-08-22T20:28:55.567Z,99815.00
2018-08-22T20:31:24.746Z,99817.00
2018-08-22T20:34:14.571Z,99827.00
2018-08-22T20:36:46.492Z,99836.00
2018-08-22T20:39:16.286Z,99831.00
2018-08-22T20:41:45.883Z,99832.00
2018-08-22T20:44:21.247Z,99832.00
2018-08-22T20:46:50.790Z,99834.00
2018-08-22T20:49:20.912Z,99836.00
2018-08-22T20:51:50.335Z,99835.00
2018-08-22T20:54:23.656Z,99835.00
2018-08-22T20:56:58.241Z,99835.00
2018-08-22T20:59:27.567Z,99839.00
2018-08-22T21:02:01.200Z,99838.00
2018-08-22T21:04:30.614Z,99840.00
2018-08-22T21:09:35.429Z,99841.00
2018-08-22T21:12:05.306Z,99844.00
2018-08-22T21:14:34.364Z,99837.00
2018-08-22T21:17:04.033Z,99836.00
2018-08-22T21:19:33.143Z,99839.00
2018-08-22T21:22:02.449Z,99843.00
2018-08-22T21:24:31.944Z,99843.00
2018-08-22T21:27:01.312Z,99840.00
2018-08-22T21:29:31.038Z,99840.00
2018-08-22T21:32:02.054Z,99844.00
2018-08-22T21:34:31.367Z,99844.00
2018-08-22T21:37:01.169Z,99846.00
2018-08-22T21:39:30.515Z,99852.00
2018-08-22T21:42:00.088Z,99850.00
2018-08-22T21:44:29.324Z,99839.00
2018-08-22T21:47:04.015Z,99845.00
2018-08-22T21:49:33.336Z,99845.00
2018-08-22T21:52:02.818Z,99847.00
2018-08-22T21:54:32.411Z,99841.00
2018-08-22T21:57:01.642Z,99849.00
2018-08-22T22:02:14.441Z,99841.00
2018-08-22T22:04:45.077Z,99842.00
2018-08-22T22:07:16.174Z,99843.00
2018-08-22T22:09:47.325Z,99839.00
2018-08-22T22:12:22.326Z,99843.00
2018-08-22T22:14:52.669Z,99840.00
2018-08-22T22:17:23.391Z,99839.00
2018-08-22T22:19:54.564Z,99842.00
2018-08-22T22:22:26.397Z,99849.00
2018-08-22T22:25:03.482Z,99850.00
2018-08-22T22:27:34.818Z,99846.00
2018-08-22T22:30:07.428Z,99843.00
2018-08-22T22:32:37.454Z,99846.00
2018-08-22T22:35:06.822Z,99846.00
2018-08-22T22:37:36.138Z,99841.00
2018-08-22T22:40:07.419Z,99846.00
2018-08-22T22:42:38.712Z,99843.00
2018-08-22T22:45:10.417Z,99846.00
2018-08-22T22:47:42.313Z,99843.00
2018-08-22T22:50:13.978Z,99844.00
2018-08-22T22:52:46.551Z,99848.00
2018-08-22T22:55:16.712Z,99846.00
2018-08-22T22:57:47.602Z,99845.00
2018-08-22T23:00:20.279Z,99855.00
2018-08-22T23:02:57.129Z,99850.00
2018-08-22T23:05:30.646Z,99848.00
2018-08-22T23:08:04.057Z,99848.00
2018-08-22T23:10:34.474Z,99849.00
2018-08-22T23:13:06.518Z,99845.00
2018-08-22T23:15:39.253Z,99846.00
2018-08-22T23:18:09.802Z,99848.00
2018-08-22T23:20:44.187Z,99846.00
2018-08-22T23:23:38.943Z,99842.00
2018-08-22T23:26:20.735Z,99843.00
2018-08-22T23:28:50.676Z,99840.00
2018-08-22T23:31:21.626Z,99836.00
2018-08-22T23:33:52.027Z,99834.00
2018-08-22T23:36:22.402Z,99836.00
2018-08-22T23:38:51.865Z,99840.00
2018-08-22T23:41:22.192Z,99839.00
2018-08-22T23:43:53.532Z,99832.00
2018-08-22T23:46:23.654Z,99827.00
2018-08-22T23:48:57.425Z,99825.00
2018-08-22T23:51:27.805Z,99825.00
2018-08-22T23:54:03.780Z,99819.00
2018-08-22T23:56:33.164Z,99815.00
2018-08-22T23:59:02.633Z,99812.00
